sensor_id;sensor_type;location;lat;lon;timestamp;P1;durP1;ratioP1;P2;durP2;ratioP2
4833;SDS011;12895;51.064;7.028;2023-12-20T00:01:53;24.20;;;17.30;;
4833;SDS011;12895;51.064;7.028;2023-12-20T00:04:40;25.87;;;19.13;;
4833;SDS011;12895;51.064;7.028;2023-12-20T00:07:25;21.90;;;17.97;;
4833;SDS011;12895;51.064;7.028;2023-12-20T00:10:10;24.67;;;17.77;;
4833;SDS011;12895;51.064;7.028;2023-12-20T00:12:56;25.27;;;17.03;;
4833;SDS011;12895;51.064;7.028;2023-12-20T00:15:41;23.27;;;17.07;;
4833;SDS011;12895;51.064;7.028;2023-12-20T00:18:27;26.77;;;18.17;;
4833;SDS011;12895;51.064;7.028;2023-12-20T00:21:13;26.20;;;18.30;;
4833;SDS011;12895;51.064;7.028;2023-12-20T00:23:59;22.27;;;15.97;;
4833;SDS011;12895;51.064;7.028;2023-12-20T00:26:44;20.60;;;15.57;;
4833;SDS011;12895;51.064;7.028;2023-12-20T00:29:29;16.43;;;12.93;;
4833;SDS011;12895;51.064;7.028;2023-12-20T00:32:15;15.63;;;9.20;;
4833;SDS011;12895;51.064;7.028;2023-12-20T00:35:01;8.97;;;7.30;;
4833;SDS011;12895;51.064;7.028;2023-12-20T00:37:47;15.27;;;9.37;;
4833;SDS011;12895;51.064;7.028;2023-12-20T00:40:33;12.43;;;8.30;;
4833;SDS011;12895;51.064;7.028;2023-12-20T00:43:18;13.30;;;9.07;;
4833;SDS011;12895;51.064;7.028;2023-12-20T00:46:03;11.17;;;8.50;;
4833;SDS011;12895;51.064;7.028;2023-12-20T00:48:48;8.70;;;6.37;;
4833;SDS011;12895;51.064;7.028;2023-12-20T00:51:34;6.63;;;5.93;;
4833;SDS011;12895;51.064;7.028;2023-12-20T00:54:20;10.53;;;6.90;;
4833;SDS011;12895;51.064;7.028;2023-12-20T00:57:05;9.70;;;6.67;;
4833;SDS011;12895;51.064;7.028;2023-12-20T00:59:51;12.20;;;8.23;;
4833;SDS011;12895;51.064;7.028;2023-12-20T01:02:36;10.47;;;7.13;;
4833;SDS011;12895;51.064;7.028;2023-12-20T01:05:21;9.23;;;7.00;;
4833;SDS011;12895;51.064;7.028;2023-12-20T01:08:07;10.30;;;7.63;;
4833;SDS011;12895;51.064;7.028;2023-12-20T01:10:54;11.90;;;7.20;;
4833;SDS011;12895;51.064;7.028;2023-12-20T01:13:39;9.70;;;7.33;;
4833;SDS011;12895;51.064;7.028;2023-12-20T01:16:24;9.67;;;7.47;;
4833;SDS011;12895;51.064;7.028;2023-12-20T01:19:09;10.43;;;7.47;;
4833;SDS011;12895;51.064;7.028;2023-12-20T01:21:54;12.07;;;7.97;;
4833;SDS011;12895;51.064;7.028;2023-12-20T01:24:40;12.57;;;7.83;;
4833;SDS011;12895;51.064;7.028;2023-12-20T01:27:28;9.70;;;7.10;;
4833;SDS011;12895;51.064;7.028;2023-12-20T01:30:14;12.37;;;7.80;;
4833;SDS011;12895;51.064;7.028;2023-12-20T01:33:00;14.93;;;8.50;;
4833;SDS011;12895;51.064;7.028;2023-12-20T01:35:45;12.57;;;8.03;;
4833;SDS011;12895;51.064;7.028;2023-12-20T01:38:30;14.27;;;7.93;;
4833;SDS011;12895;51.064;7.028;2023-12-20T01:41:16;15.80;;;7.90;;
4833;SDS011;12895;51.064;7.028;2023-12-20T01:44:03;14.13;;;8.37;;
4833;SDS011;12895;51.064;7.028;2023-12-20T01:46:48;12.27;;;8.80;;
4833;SDS011;12895;51.064;7.028;2023-12-20T01:49:33;14.83;;;8.83;;
4833;SDS011;12895;51.064;7.028;2023-12-20T01:52:19;17.83;;;10.53;;
4833;SDS011;12895;51.064;7.028;2023-12-20T01:55:05;16.63;;;10.53;;
4833;SDS011;12895;51.064;7.028;2023-12-20T01:57:57;16.80;;;10.40;;
4833;SDS011;12895;51.064;7.028;2023-12-20T02:00:44;16.93;;;10.70;;
4833;SDS011;12895;51.064;7.028;2023-12-20T02:03:29;18.13;;;11.33;;
4833;SDS011;12895;51.064;7.028;2023-12-20T02:06:14;15.43;;;11.00;;
4833;SDS011;12895;51.064;7.028;2023-12-20T02:08:59;16.87;;;11.33;;
4833;SDS011;12895;51.064;7.028;2023-12-20T02:11:45;17.10;;;10.30;;
4833;SDS011;12895;51.064;7.028;2023-12-20T02:14:30;16.50;;;11.03;;
4833;SDS011;12895;51.064;7.028;2023-12-20T02:17:20;17.87;;;11.03;;
4833;SDS011;12895;51.064;7.028;2023-12-20T02:20:06;16.60;;;11.23;;
4833;SDS011;12895;51.064;7.028;2023-12-20T02:22:53;17.27;;;10.10;;
4833;SDS011;12895;51.064;7.028;2023-12-20T02:25:38;16.67;;;10.80;;
4833;SDS011;12895;51.064;7.028;2023-12-20T02:28:23;20.33;;;10.50;;
4833;SDS011;12895;51.064;7.028;2023-12-20T02:31:08;20.03;;;10.80;;
4833;SDS011;12895;51.064;7.028;2023-12-20T02:33:53;13.87;;;9.90;;
4833;SDS011;12895;51.064;7.028;2023-12-20T02:36:38;17.40;;;9.43;;
4833;SDS011;12895;51.064;7.028;2023-12-20T02:39:25;17.87;;;10.70;;
4833;SDS011;12895;51.064;7.028;2023-12-20T02:42:10;27.90;;;10.97;;
4833;SDS011;12895;51.064;7.028;2023-12-20T02:44:55;23.93;;;11.33;;
4833;SDS011;12895;51.064;7.028;2023-12-20T02:47:40;22.07;;;10.70;;
4833;SDS011;12895;51.064;7.028;2023-12-20T02:50:25;15.10;;;9.57;;
4833;SDS011;12895;51.064;7.028;2023-12-20T02:53:10;17.70;;;10.90;;
4833;SDS011;12895;51.064;7.028;2023-12-20T02:55:57;13.67;;;8.67;;
4833;SDS011;12895;51.064;7.028;2023-12-20T02:58:42;16.77;;;9.73;;
4833;SDS011;12895;51.064;7.028;2023-12-20T03:01:28;16.57;;;8.67;;
4833;SDS011;12895;51.064;7.028;2023-12-20T03:04:13;12.73;;;8.20;;
4833;SDS011;12895;51.064;7.028;2023-12-20T03:06:58;15.73;;;9.30;;
4833;SDS011;12895;51.064;7.028;2023-12-20T03:09:44;15.10;;;7.83;;
4833;SDS011;12895;51.064;7.028;2023-12-20T03:12:30;12.23;;;7.17;;
4833;SDS011;12895;51.064;7.028;2023-12-20T03:15:15;15.03;;;6.47;;
4833;SDS011;12895;51.064;7.028;2023-12-20T03:18:01;13.90;;;5.43;;
4833;SDS011;12895;51.064;7.028;2023-12-20T03:20:46;13.73;;;5.63;;
4833;SDS011;12895;51.064;7.028;2023-12-20T03:23:34;10.80;;;5.40;;
4833;SDS011;12895;51.064;7.028;2023-12-20T03:26:18;9.83;;;4.07;;
4833;SDS011;12895;51.064;7.028;2023-12-20T03:29:05;12.17;;;4.07;;
4833;SDS011;12895;51.064;7.028;2023-12-20T03:31:50;12.70;;;4.03;;
4833;SDS011;12895;51.064;7.028;2023-12-20T03:34:35;18.77;;;5.10;;
4833;SDS011;12895;51.064;7.028;2023-12-20T03:37:21;10.93;;;4.60;;
4833;SDS011;12895;51.064;7.028;2023-12-20T03:40:06;10.63;;;4.53;;
4833;SDS011;12895;51.064;7.028;2023-12-20T03:42:51;13.23;;;4.90;;
4833;SDS011;12895;51.064;7.028;2023-12-20T03:45:37;13.87;;;4.40;;
4833;SDS011;12895;51.064;7.028;2023-12-20T03:48:22;17.57;;;5.57;;
4833;SDS011;12895;51.064;7.028;2023-12-20T03:51:07;9.20;;;4.50;;
4833;SDS011;12895;51.064;7.028;2023-12-20T03:53:52;18.87;;;5.23;;
4833;SDS011;12895;51.064;7.028;2023-12-20T03:56:38;12.10;;;4.17;;
4833;SDS011;12895;51.064;7.028;2023-12-20T03:59:22;6.30;;;4.70;;
4833;SDS011;12895;51.064;7.028;2023-12-20T04:02:09;13.67;;;5.23;;
4833;SDS011;12895;51.064;7.028;2023-12-20T04:04:54;19.23;;;8.33;;
4833;SDS011;12895;51.064;7.028;2023-12-20T04:07:40;16.63;;;5.90;;
4833;SDS011;12895;51.064;7.028;2023-12-20T04:10:25;9.90;;;5.53;;
4833;SDS011;12895;51.064;7.028;2023-12-20T04:13:10;19.23;;;5.30;;
4833;SDS011;12895;51.064;7.028;2023-12-20T04:15:55;11.10;;;5.17;;
4833;SDS011;12895;51.064;7.028;2023-12-20T04:18:42;11.87;;;5.77;;
4833;SDS011;12895;51.064;7.028;2023-12-20T04:21:27;12.60;;;4.73;;
4833;SDS011;12895;51.064;7.028;2023-12-20T04:24:12;12.43;;;4.33;;
4833;SDS011;12895;51.064;7.028;2023-12-20T04:26:57;14.20;;;7.50;;
4833;SDS011;12895;51.064;7.028;2023-12-20T04:29:42;14.20;;;4.63;;
4833;SDS011;12895;51.064;7.028;2023-12-20T04:32:27;12.03;;;5.03;;
4833;SDS011;12895;51.064;7.028;2023-12-20T04:35:14;16.57;;;4.53;;
4833;SDS011;12895;51.064;7.028;2023-12-20T04:37:59;13.80;;;5.73;;
4833;SDS011;12895;51.064;7.028;2023-12-20T04:40:44;18.90;;;4.87;;
4833;SDS011;12895;51.064;7.028;2023-12-20T04:43:30;14.33;;;4.90;;
4833;SDS011;12895;51.064;7.028;2023-12-20T04:46:14;12.67;;;4.50;;
4833;SDS011;12895;51.064;7.028;2023-12-20T04:49:00;13.80;;;4.60;;
4833;SDS011;12895;51.064;7.028;2023-12-20T04:51:46;16.60;;;4.60;;
4833;SDS011;12895;51.064;7.028;2023-12-20T04:54:31;20.03;;;4.93;;
4833;SDS011;12895;51.064;7.028;2023-12-20T04:57:17;8.40;;;4.90;;
4833;SDS011;12895;51.064;7.028;2023-12-20T05:00:02;11.30;;;4.80;;
4833;SDS011;12895;51.064;7.028;2023-12-20T05:02:48;12.83;;;4.87;;
4833;SDS011;12895;51.064;7.028;2023-12-20T05:05:33;19.60;;;5.80;;
4833;SDS011;12895;51.064;7.028;2023-12-20T05:08:20;13.20;;;5.43;;
4833;SDS011;12895;51.064;7.028;2023-12-20T05:11:05;16.23;;;5.80;;
4833;SDS011;12895;51.064;7.028;2023-12-20T05:13:50;18.20;;;5.30;;
4833;SDS011;12895;51.064;7.028;2023-12-20T05:16:36;12.77;;;5.97;;
4833;SDS011;12895;51.064;7.028;2023-12-20T05:19:21;7.77;;;5.03;;
4833;SDS011;12895;51.064;7.028;2023-12-20T05:22:06;20.53;;;5.80;;
4833;SDS011;12895;51.064;7.028;2023-12-20T05:24:53;17.73;;;5.80;;
4833;SDS011;12895;51.064;7.028;2023-12-20T05:27:38;14.20;;;6.10;;
4833;SDS011;12895;51.064;7.028;2023-12-20T05:30:24;9.13;;;5.10;;
4833;SDS011;12895;51.064;7.028;2023-12-20T05:33:09;18.00;;;5.63;;
4833;SDS011;12895;51.064;7.028;2023-12-20T05:35:55;16.20;;;6.00;;
4833;SDS011;12895;51.064;7.028;2023-12-20T05:38:39;10.87;;;5.27;;
4833;SDS011;12895;51.064;7.028;2023-12-20T05:41:26;15.63;;;6.33;;
4833;SDS011;12895;51.064;7.028;2023-12-20T05:44:11;13.80;;;6.50;;
4833;SDS011;12895;51.064;7.028;2023-12-20T05:46:56;15.63;;;5.60;;
4833;SDS011;12895;51.064;7.028;2023-12-20T05:49:43;14.30;;;6.27;;
4833;SDS011;12895;51.064;7.028;2023-12-20T05:52:28;14.20;;;6.37;;
4833;SDS011;12895;51.064;7.028;2023-12-20T05:55:13;12.67;;;5.57;;
4833;SDS011;12895;51.064;7.028;2023-12-20T05:58:00;13.70;;;5.80;;
4833;SDS011;12895;51.064;7.028;2023-12-20T06:00:45;14.83;;;6.27;;
4833;SDS011;12895;51.064;7.028;2023-12-20T06:03:31;13.50;;;6.23;;
4833;SDS011;12895;51.064;7.028;2023-12-20T06:06:16;11.77;;;6.13;;
4833;SDS011;12895;51.064;7.028;2023-12-20T06:09:01;13.00;;;6.07;;
4833;SDS011;12895;51.064;7.028;2023-12-20T06:11:47;15.60;;;5.90;;
4833;SDS011;12895;51.064;7.028;2023-12-20T06:14:33;18.47;;;5.67;;
4833;SDS011;12895;51.064;7.028;2023-12-20T06:17:19;16.00;;;5.70;;
4833;SDS011;12895;51.064;7.028;2023-12-20T06:20:04;12.87;;;5.57;;
4833;SDS011;12895;51.064;7.028;2023-12-20T06:22:51;16.10;;;5.27;;
4833;SDS011;12895;51.064;7.028;2023-12-20T06:25:37;12.03;;;5.50;;
4833;SDS011;12895;51.064;7.028;2023-12-20T06:28:22;15.40;;;5.30;;
4833;SDS011;12895;51.064;7.028;2023-12-20T06:31:09;15.60;;;6.40;;
4833;SDS011;12895;51.064;7.028;2023-12-20T06:33:54;14.27;;;5.33;;
4833;SDS011;12895;51.064;7.028;2023-12-20T06:36:41;10.27;;;5.27;;
4833;SDS011;12895;51.064;7.028;2023-12-20T06:39:26;10.43;;;5.10;;
4833;SDS011;12895;51.064;7.028;2023-12-20T06:42:12;13.30;;;5.83;;
4833;SDS011;12895;51.064;7.028;2023-12-20T06:44:57;10.40;;;5.30;;
4833;SDS011;12895;51.064;7.028;2023-12-20T06:47:44;17.73;;;5.40;;
4833;SDS011;12895;51.064;7.028;2023-12-20T06:50:29;17.83;;;5.53;;
4833;SDS011;12895;51.064;7.028;2023-12-20T06:53:14;7.87;;;5.43;;
4833;SDS011;12895;51.064;7.028;2023-12-20T06:55:59;14.03;;;5.50;;
4833;SDS011;12895;51.064;7.028;2023-12-20T06:58:44;12.10;;;4.97;;
4833;SDS011;12895;51.064;7.028;2023-12-20T07:01:29;14.00;;;5.50;;
4833;SDS011;12895;51.064;7.028;2023-12-20T07:04:16;15.40;;;4.57;;
4833;SDS011;12895;51.064;7.028;2023-12-20T07:07:04;19.23;;;5.50;;
4833;SDS011;12895;51.064;7.028;2023-12-20T07:09:49;11.60;;;5.10;;
4833;SDS011;12895;51.064;7.028;2023-12-20T07:12:34;16.63;;;5.53;;
4833;SDS011;12895;51.064;7.028;2023-12-20T07:15:20;12.20;;;5.07;;
4833;SDS011;12895;51.064;7.028;2023-12-20T07:18:05;16.90;;;5.77;;
4833;SDS011;12895;51.064;7.028;2023-12-20T07:20:52;17.13;;;5.93;;
4833;SDS011;12895;51.064;7.028;2023-12-20T07:23:39;16.60;;;5.40;;
4833;SDS011;12895;51.064;7.028;2023-12-20T07:26:24;11.13;;;4.50;;
4833;SDS011;12895;51.064;7.028;2023-12-20T07:29:09;12.50;;;4.80;;
4833;SDS011;12895;51.064;7.028;2023-12-20T07:31:54;12.07;;;5.13;;
4833;SDS011;12895;51.064;7.028;2023-12-20T07:34:39;14.60;;;6.17;;
4833;SDS011;12895;51.064;7.028;2023-12-20T07:37:26;15.57;;;6.20;;
4833;SDS011;12895;51.064;7.028;2023-12-20T07:40:11;11.90;;;4.80;;
4833;SDS011;12895;51.064;7.028;2023-12-20T07:42:56;16.33;;;5.20;;
4833;SDS011;12895;51.064;7.028;2023-12-20T07:45:41;14.60;;;5.30;;
4833;SDS011;12895;51.064;7.028;2023-12-20T07:48:27;10.93;;;5.73;;
4833;SDS011;12895;51.064;7.028;2023-12-20T07:51:12;17.10;;;5.30;;
4833;SDS011;12895;51.064;7.028;2023-12-20T07:53:58;13.00;;;5.40;;
4833;SDS011;12895;51.064;7.028;2023-12-20T07:56:44;13.00;;;5.37;;
4833;SDS011;12895;51.064;7.028;2023-12-20T07:59:29;14.50;;;5.63;;
4833;SDS011;12895;51.064;7.028;2023-12-20T08:02:14;16.87;;;6.67;;
4833;SDS011;12895;51.064;7.028;2023-12-20T08:04:59;14.00;;;5.20;;
4833;SDS011;12895;51.064;7.028;2023-12-20T08:07:44;17.07;;;6.13;;
4833;SDS011;12895;51.064;7.028;2023-12-20T08:10:30;16.07;;;6.10;;
4833;SDS011;12895;51.064;7.028;2023-12-20T08:13:15;17.23;;;5.90;;
4833;SDS011;12895;51.064;7.028;2023-12-20T08:16:00;11.37;;;5.60;;
4833;SDS011;12895;51.064;7.028;2023-12-20T08:18:47;10.57;;;5.37;;
4833;SDS011;12895;51.064;7.028;2023-12-20T08:21:32;20.50;;;6.50;;
4833;SDS011;12895;51.064;7.028;2023-12-20T08:24:17;14.23;;;5.50;;
4833;SDS011;12895;51.064;7.028;2023-12-20T08:27:04;13.33;;;5.93;;
4833;SDS011;12895;51.064;7.028;2023-12-20T08:29:49;14.10;;;5.60;;
4833;SDS011;12895;51.064;7.028;2023-12-20T08:32:34;13.63;;;6.00;;
4833;SDS011;12895;51.064;7.028;2023-12-20T08:35:19;15.30;;;6.10;;
4833;SDS011;12895;51.064;7.028;2023-12-20T08:38:05;20.30;;;6.50;;
4833;SDS011;12895;51.064;7.028;2023-12-20T08:40:51;14.27;;;6.00;;
4833;SDS011;12895;51.064;7.028;2023-12-20T08:43:37;18.97;;;7.90;;
4833;SDS011;12895;51.064;7.028;2023-12-20T08:46:23;11.23;;;5.60;;
4833;SDS011;12895;51.064;7.028;2023-12-20T08:49:09;12.80;;;5.90;;
4833;SDS011;12895;51.064;7.028;2023-12-20T08:51:54;13.50;;;5.10;;
4833;SDS011;12895;51.064;7.028;2023-12-20T08:54:39;18.53;;;6.33;;
4833;SDS011;12895;51.064;7.028;2023-12-20T08:57:24;14.47;;;5.60;;
4833;SDS011;12895;51.064;7.028;2023-12-20T09:00:12;16.17;;;5.67;;
4833;SDS011;12895;51.064;7.028;2023-12-20T09:02:57;16.00;;;6.77;;
4833;SDS011;12895;51.064;7.028;2023-12-20T09:05:43;15.07;;;5.87;;
4833;SDS011;12895;51.064;7.028;2023-12-20T09:08:29;14.47;;;5.70;;
4833;SDS011;12895;51.064;7.028;2023-12-20T09:11:14;9.80;;;5.47;;
4833;SDS011;12895;51.064;7.028;2023-12-20T09:14:01;13.70;;;6.70;;
4833;SDS011;12895;51.064;7.028;2023-12-20T09:16:48;20.67;;;5.47;;
4833;SDS011;12895;51.064;7.028;2023-12-20T09:19:35;8.80;;;4.80;;
4833;SDS011;12895;51.064;7.028;2023-12-20T09:22:20;12.70;;;5.10;;
4833;SDS011;12895;51.064;7.028;2023-12-20T09:25:05;14.57;;;5.90;;
4833;SDS011;12895;51.064;7.028;2023-12-20T09:27:51;14.43;;;5.60;;
4833;SDS011;12895;51.064;7.028;2023-12-20T09:30:36;11.90;;;4.97;;
4833;SDS011;12895;51.064;7.028;2023-12-20T09:33:26;15.70;;;6.50;;
4833;SDS011;12895;51.064;7.028;2023-12-20T09:36:11;13.77;;;4.43;;
4833;SDS011;12895;51.064;7.028;2023-12-20T09:38:56;11.20;;;4.40;;
4833;SDS011;12895;51.064;7.028;2023-12-20T09:41:42;20.33;;;5.60;;
4833;SDS011;12895;51.064;7.028;2023-12-20T09:44:28;9.60;;;4.80;;
4833;SDS011;12895;51.064;7.028;2023-12-20T09:47:13;14.23;;;5.10;;
4833;SDS011;12895;51.064;7.028;2023-12-20T09:50:01;14.03;;;4.80;;
4833;SDS011;12895;51.064;7.028;2023-12-20T09:52:48;9.40;;;4.60;;
4833;SDS011;12895;51.064;7.028;2023-12-20T09:55:34;11.30;;;4.87;;
4833;SDS011;12895;51.064;7.028;2023-12-20T09:58:20;19.73;;;6.53;;
4833;SDS011;12895;51.064;7.028;2023-12-20T10:01:05;8.20;;;3.77;;
4833;SDS011;12895;51.064;7.028;2023-12-20T10:03:51;13.10;;;4.47;;
4833;SDS011;12895;51.064;7.028;2023-12-20T10:06:41;10.33;;;3.70;;
4833;SDS011;12895;51.064;7.028;2023-12-20T10:09:26;14.87;;;5.07;;
4833;SDS011;12895;51.064;7.028;2023-12-20T10:12:12;9.40;;;3.70;;
4833;SDS011;12895;51.064;7.028;2023-12-20T10:14:58;10.83;;;3.77;;
4833;SDS011;12895;51.064;7.028;2023-12-20T10:17:43;11.43;;;4.50;;
4833;SDS011;12895;51.064;7.028;2023-12-20T10:20:29;10.53;;;4.40;;
4833;SDS011;12895;51.064;7.028;2023-12-20T10:23:16;10.10;;;4.10;;
4833;SDS011;12895;51.064;7.028;2023-12-20T10:26:02;11.27;;;3.70;;
4833;SDS011;12895;51.064;7.028;2023-12-20T10:28:49;10.13;;;3.10;;
4833;SDS011;12895;51.064;7.028;2023-12-20T10:31:35;13.50;;;4.40;;
4833;SDS011;12895;51.064;7.028;2023-12-20T10:34:22;13.90;;;4.50;;
4833;SDS011;12895;51.064;7.028;2023-12-20T10:37:07;7.80;;;3.07;;
4833;SDS011;12895;51.064;7.028;2023-12-20T10:39:54;12.17;;;3.90;;
4833;SDS011;12895;51.064;7.028;2023-12-20T10:42:41;10.93;;;4.30;;
4833;SDS011;12895;51.064;7.028;2023-12-20T10:45:27;12.77;;;4.90;;
4833;SDS011;12895;51.064;7.028;2023-12-20T10:48:12;8.53;;;3.90;;
4833;SDS011;12895;51.064;7.028;2023-12-20T10:50:57;8.50;;;3.20;;
4833;SDS011;12895;51.064;7.028;2023-12-20T10:53:43;12.70;;;4.17;;
4833;SDS011;12895;51.064;7.028;2023-12-20T10:56:30;9.03;;;3.70;;
4833;SDS011;12895;51.064;7.028;2023-12-20T10:59:17;12.60;;;3.90;;
4833;SDS011;12895;51.064;7.028;2023-12-20T11:02:04;8.27;;;4.27;;
4833;SDS011;12895;51.064;7.028;2023-12-20T11:04:51;9.43;;;4.50;;
4833;SDS011;12895;51.064;7.028;2023-12-20T11:07:38;9.10;;;3.60;;
4833;SDS011;12895;51.064;7.028;2023-12-20T11:10:26;10.33;;;4.10;;
4833;SDS011;12895;51.064;7.028;2023-12-20T11:13:16;9.33;;;4.30;;
4833;SDS011;12895;51.064;7.028;2023-12-20T11:16:02;12.03;;;3.97;;
4833;SDS011;12895;51.064;7.028;2023-12-20T11:18:48;13.33;;;4.00;;
4833;SDS011;12895;51.064;7.028;2023-12-20T11:21:35;9.07;;;4.40;;
4833;SDS011;12895;51.064;7.028;2023-12-20T11:24:21;7.80;;;3.50;;
4833;SDS011;12895;51.064;7.028;2023-12-20T11:27:08;10.97;;;4.33;;
4833;SDS011;12895;51.064;7.028;2023-12-20T11:29:56;7.87;;;4.17;;
4833;SDS011;12895;51.064;7.028;2023-12-20T11:32:41;8.87;;;4.03;;
4833;SDS011;12895;51.064;7.028;2023-12-20T11:35:27;7.03;;;4.27;;
4833;SDS011;12895;51.064;7.028;2023-12-20T11:38:13;10.50;;;4.67;;
4833;SDS011;12895;51.064;7.028;2023-12-20T11:40:58;8.03;;;4.23;;
4833;SDS011;12895;51.064;7.028;2023-12-20T11:43:47;16.33;;;4.53;;
4833;SDS011;12895;51.064;7.028;2023-12-20T11:46:34;13.50;;;4.73;;
4833;SDS011;12895;51.064;7.028;2023-12-20T11:49:22;7.30;;;3.87;;
4833;SDS011;12895;51.064;7.028;2023-12-20T11:52:07;13.87;;;4.70;;
4833;SDS011;12895;51.064;7.028;2023-12-20T11:54:52;12.70;;;4.03;;
4833;SDS011;12895;51.064;7.028;2023-12-20T11:57:37;9.30;;;3.90;;
4833;SDS011;12895;51.064;7.028;2023-12-20T12:00:23;8.97;;;3.90;;
4833;SDS011;12895;51.064;7.028;2023-12-20T12:03:14;5.90;;;4.03;;
4833;SDS011;12895;51.064;7.028;2023-12-20T12:05:59;8.90;;;3.77;;
4833;SDS011;12895;51.064;7.028;2023-12-20T12:08:46;12.03;;;4.80;;
4833;SDS011;12895;51.064;7.028;2023-12-20T12:11:31;12.20;;;4.30;;
4833;SDS011;12895;51.064;7.028;2023-12-20T12:14:16;9.10;;;4.63;;
4833;SDS011;12895;51.064;7.028;2023-12-20T12:17:03;10.13;;;4.30;;
4833;SDS011;12895;51.064;7.028;2023-12-20T12:19:50;8.73;;;4.77;;
4833;SDS011;12895;51.064;7.028;2023-12-20T12:22:36;9.50;;;4.23;;
4833;SDS011;12895;51.064;7.028;2023-12-20T12:25:21;10.10;;;5.23;;
4833;SDS011;12895;51.064;7.028;2023-12-20T12:28:08;14.63;;;4.30;;
4833;SDS011;12895;51.064;7.028;2023-12-20T12:30:57;10.40;;;4.40;;
4833;SDS011;12895;51.064;7.028;2023-12-20T12:33:42;9.13;;;4.60;;
4833;SDS011;12895;51.064;7.028;2023-12-20T12:36:29;12.23;;;4.70;;
4833;SDS011;12895;51.064;7.028;2023-12-20T12:39:14;7.33;;;4.50;;
4833;SDS011;12895;51.064;7.028;2023-12-20T12:41:59;12.13;;;4.33;;
4833;SDS011;12895;51.064;7.028;2023-12-20T12:44:44;13.80;;;5.33;;
4833;SDS011;12895;51.064;7.028;2023-12-20T12:47:30;9.17;;;4.80;;
4833;SDS011;12895;51.064;7.028;2023-12-20T12:50:15;10.47;;;5.00;;
4833;SDS011;12895;51.064;7.028;2023-12-20T12:53:02;17.63;;;6.27;;
4833;SDS011;12895;51.064;7.028;2023-12-20T12:55:47;7.57;;;4.20;;
4833;SDS011;12895;51.064;7.028;2023-12-20T12:58:33;5.43;;;4.30;;
4833;SDS011;12895;51.064;7.028;2023-12-20T13:01:18;10.67;;;5.07;;
4833;SDS011;12895;51.064;7.028;2023-12-20T13:04:03;15.00;;;5.10;;
4833;SDS011;12895;51.064;7.028;2023-12-20T13:06:54;8.50;;;5.50;;
4833;SDS011;12895;51.064;7.028;2023-12-20T13:09:42;13.60;;;6.20;;
4833;SDS011;12895;51.064;7.028;2023-12-20T13:12:27;11.30;;;5.50;;
4833;SDS011;12895;51.064;7.028;2023-12-20T13:15:13;13.37;;;4.77;;
4833;SDS011;12895;51.064;7.028;2023-12-20T13:17:58;15.93;;;5.17;;
4833;SDS011;12895;51.064;7.028;2023-12-20T13:20:43;7.57;;;4.30;;
4833;SDS011;12895;51.064;7.028;2023-12-20T13:23:28;10.53;;;5.40;;
4833;SDS011;12895;51.064;7.028;2023-12-20T13:26:15;10.77;;;6.03;;
4833;SDS011;12895;51.064;7.028;2023-12-20T13:29:01;10.20;;;4.73;;
4833;SDS011;12895;51.064;7.028;2023-12-20T13:31:46;9.40;;;5.30;;
4833;SDS011;12895;51.064;7.028;2023-12-20T13:34:32;11.67;;;5.10;;
4833;SDS011;12895;51.064;7.028;2023-12-20T13:37:17;13.00;;;6.30;;
4833;SDS011;12895;51.064;7.028;2023-12-20T13:40:02;11.07;;;5.33;;
4833;SDS011;12895;51.064;7.028;2023-12-20T13:42:49;9.03;;;5.27;;
4833;SDS011;12895;51.064;7.028;2023-12-20T13:45:34;11.67;;;5.77;;
4833;SDS011;12895;51.064;7.028;2023-12-20T13:48:20;7.43;;;5.13;;
4833;SDS011;12895;51.064;7.028;2023-12-20T13:51:05;10.17;;;5.30;;
4833;SDS011;12895;51.064;7.028;2023-12-20T13:53:51;12.83;;;5.50;;
4833;SDS011;12895;51.064;7.028;2023-12-20T13:56:36;10.80;;;5.40;;
4833;SDS011;12895;51.064;7.028;2023-12-20T13:59:23;11.70;;;5.50;;
4833;SDS011;12895;51.064;7.028;2023-12-20T14:02:08;10.77;;;4.90;;
4833;SDS011;12895;51.064;7.028;2023-12-20T14:04:53;8.20;;;4.53;;
4833;SDS011;12895;51.064;7.028;2023-12-20T14:07:38;9.97;;;4.53;;
4833;SDS011;12895;51.064;7.028;2023-12-20T14:10:24;11.13;;;5.93;;
4833;SDS011;12895;51.064;7.028;2023-12-20T14:13:10;11.50;;;4.83;;
4833;SDS011;12895;51.064;7.028;2023-12-20T14:15:56;11.43;;;4.50;;
4833;SDS011;12895;51.064;7.028;2023-12-20T14:18:44;9.93;;;6.17;;
4833;SDS011;12895;51.064;7.028;2023-12-20T14:21:29;12.57;;;4.40;;
4833;SDS011;12895;51.064;7.028;2023-12-20T14:24:14;8.60;;;4.80;;
4833;SDS011;12895;51.064;7.028;2023-12-20T14:27:00;8.03;;;4.97;;
4833;SDS011;12895;51.064;7.028;2023-12-20T14:29:45;9.87;;;4.83;;
4833;SDS011;12895;51.064;7.028;2023-12-20T14:32:34;13.33;;;5.40;;
4833;SDS011;12895;51.064;7.028;2023-12-20T14:35:20;12.53;;;4.93;;
4833;SDS011;12895;51.064;7.028;2023-12-20T14:38:06;11.00;;;4.87;;
4833;SDS011;12895;51.064;7.028;2023-12-20T14:40:52;10.97;;;5.30;;
4833;SDS011;12895;51.064;7.028;2023-12-20T14:43:38;14.83;;;5.50;;
4833;SDS011;12895;51.064;7.028;2023-12-20T14:46:23;17.13;;;5.77;;
4833;SDS011;12895;51.064;7.028;2023-12-20T14:49:10;8.87;;;5.13;;
4833;SDS011;12895;51.064;7.028;2023-12-20T14:51:55;11.23;;;4.77;;
4833;SDS011;12895;51.064;7.028;2023-12-20T14:54:40;11.30;;;5.50;;
4833;SDS011;12895;51.064;7.028;2023-12-20T14:57:27;10.87;;;4.77;;
4833;SDS011;12895;51.064;7.028;2023-12-20T15:00:13;11.83;;;5.63;;
4833;SDS011;12895;51.064;7.028;2023-12-20T15:03:00;12.63;;;4.73;;
4833;SDS011;12895;51.064;7.028;2023-12-20T15:05:46;7.67;;;5.10;;
4833;SDS011;12895;51.064;7.028;2023-12-20T15:08:31;7.27;;;4.30;;
4833;SDS011;12895;51.064;7.028;2023-12-20T15:11:16;11.97;;;5.00;;
4833;SDS011;12895;51.064;7.028;2023-12-20T15:14:01;10.93;;;4.83;;
4833;SDS011;12895;51.064;7.028;2023-12-20T15:16:47;7.67;;;4.77;;
4833;SDS011;12895;51.064;7.028;2023-12-20T15:19:32;9.67;;;5.03;;
4833;SDS011;12895;51.064;7.028;2023-12-20T15:22:19;15.47;;;4.80;;
4833;SDS011;12895;51.064;7.028;2023-12-20T15:25:05;9.80;;;5.17;;
4833;SDS011;12895;51.064;7.028;2023-12-20T15:27:52;11.27;;;5.00;;
4833;SDS011;12895;51.064;7.028;2023-12-20T15:30:37;9.23;;;5.20;;
4833;SDS011;12895;51.064;7.028;2023-12-20T15:33:23;9.73;;;4.27;;
4833;SDS011;12895;51.064;7.028;2023-12-20T15:36:08;9.17;;;5.03;;
4833;SDS011;12895;51.064;7.028;2023-12-20T15:38:55;8.03;;;4.37;;
4833;SDS011;12895;51.064;7.028;2023-12-20T15:41:40;11.00;;;5.57;;
4833;SDS011;12895;51.064;7.028;2023-12-20T15:44:25;10.07;;;4.67;;
4833;SDS011;12895;51.064;7.028;2023-12-20T15:47:10;16.07;;;6.17;;
4833;SDS011;12895;51.064;7.028;2023-12-20T15:49:56;10.20;;;5.40;;
4833;SDS011;12895;51.064;7.028;2023-12-20T15:52:41;14.90;;;5.23;;
4833;SDS011;12895;51.064;7.028;2023-12-20T15:55:28;10.20;;;4.73;;
4833;SDS011;12895;51.064;7.028;2023-12-20T15:58:13;10.23;;;5.30;;
4833;SDS011;12895;51.064;7.028;2023-12-20T16:00:58;7.70;;;5.20;;
4833;SDS011;12895;51.064;7.028;2023-12-20T16:03:44;13.10;;;5.40;;
4833;SDS011;12895;51.064;7.028;2023-12-20T16:06:29;15.90;;;6.10;;
4833;SDS011;12895;51.064;7.028;2023-12-20T16:09:14;11.53;;;5.00;;
4833;SDS011;12895;51.064;7.028;2023-12-20T16:12:01;10.20;;;5.67;;
4833;SDS011;12895;51.064;7.028;2023-12-20T16:14:46;13.67;;;5.53;;
4833;SDS011;12895;51.064;7.028;2023-12-20T16:17:31;13.73;;;5.50;;
4833;SDS011;12895;51.064;7.028;2023-12-20T16:20:17;12.03;;;5.73;;
4833;SDS011;12895;51.064;7.028;2023-12-20T16:23:02;13.30;;;5.70;;
4833;SDS011;12895;51.064;7.028;2023-12-20T16:25:48;10.30;;;5.43;;
4833;SDS011;12895;51.064;7.028;2023-12-20T16:28:34;10.33;;;5.43;;
4833;SDS011;12895;51.064;7.028;2023-12-20T16:31:19;12.60;;;6.50;;
4833;SDS011;12895;51.064;7.028;2023-12-20T16:34:05;11.93;;;6.00;;
4833;SDS011;12895;51.064;7.028;2023-12-20T16:36:51;16.00;;;5.67;;
4833;SDS011;12895;51.064;7.028;2023-12-20T16:39:36;10.37;;;6.40;;